sensor_id;sensor_type;location;lat;lon;timestamp;P1;durP1;ratioP1;P2;durP2;ratioP2
24305;SDS011;12423;48.768;8.850;2023-06-14T00:01:19;8.77;;;3.90;;
24305;SDS011;12423;48.768;8.850;2023-06-14T00:03:20;6.22;;;3.67;;
24305;SDS011;12423;48.768;8.850;2023-06-14T00:05:22;9.55;;;3.67;;
24305;SDS011;12423;48.768;8.850;2023-06-14T00:07:35;6.85;;;3.88;;
24305;SDS011;12423;48.768;8.850;2023-06-14T00:09:37;6.50;;;3.85;;
24305;SDS011;12423;48.768;8.850;2023-06-14T00:11:39;7.72;;;4.40;;
24305;SDS011;12423;48.768;8.850;2023-06-14T00:13:40;8.48;;;3.92;;
24305;SDS011;12423;48.768;8.850;2023-06-14T00:15:41;8.48;;;3.95;;
24305;SDS011;12423;48.768;8.850;2023-06-14T00:17:43;8.50;;;4.25;;
24305;SDS011;12423;48.768;8.850;2023-06-14T00:19:48;8.45;;;4.50;;
24305;SDS011;12423;48.768;8.850;2023-06-14T00:21:49;7.50;;;3.90;;
24305;SDS011;12423;48.768;8.850;2023-06-14T00:23:50;7.40;;;3.90;;
24305;SDS011;12423;48.768;8.850;2023-06-14T00:25:51;9.23;;;4.55;;
24305;SDS011;12423;48.768;8.850;2023-06-14T00:27:53;10.98;;;4.35;;
24305;SDS011;12423;48.768;8.850;2023-06-14T00:29:55;7.30;;;4.00;;
24305;SDS011;12423;48.768;8.850;2023-06-14T00:31:56;6.03;;;4.25;;
24305;SDS011;12423;48.768;8.850;2023-06-14T00:33:57;8.20;;;4.15;;
24305;SDS011;12423;48.768;8.850;2023-06-14T00:35:58;7.10;;;4.00;;
24305;SDS011;12423;48.768;8.850;2023-06-14T00:37:59;6.78;;;3.92;;
24305;SDS011;12423;48.768;8.850;2023-06-14T00:40:00;6.03;;;4.20;;
24305;SDS011;12423;48.768;8.850;2023-06-14T00:42:01;7.97;;;3.70;;
24305;SDS011;12423;48.768;8.850;2023-06-14T00:44:02;8.15;;;4.38;;
24305;SDS011;12423;48.768;8.850;2023-06-14T00:46:03;6.47;;;3.70;;
24305;SDS011;12423;48.768;8.850;2023-06-14T00:48:04;7.45;;;3.97;;
24305;SDS011;12423;48.768;8.850;2023-06-14T00:50:07;7.38;;;4.03;;
24305;SDS011;12423;48.768;8.850;2023-06-14T00:52:09;7.22;;;4.32;;
24305;SDS011;12423;48.768;8.850;2023-06-14T00:54:13;6.10;;;4.25;;
24305;SDS011;12423;48.768;8.850;2023-06-14T00:56:14;7.50;;;4.22;;
24305;SDS011;12423;48.768;8.850;2023-06-14T00:58:16;5.57;;;3.92;;
24305;SDS011;12423;48.768;8.850;2023-06-14T01:00:17;7.07;;;3.80;;
24305;SDS011;12423;48.768;8.850;2023-06-14T01:02:18;9.10;;;4.20;;
24305;SDS011;12423;48.768;8.850;2023-06-14T01:04:19;6.90;;;4.00;;
24305;SDS011;12423;48.768;8.850;2023-06-14T01:06:23;7.50;;;4.05;;
24305;SDS011;12423;48.768;8.850;2023-06-14T01:08:35;7.53;;;4.03;;
24305;SDS011;12423;48.768;8.850;2023-06-14T01:11:00;5.97;;;4.15;;
24305;SDS011;12423;48.768;8.850;2023-06-14T01:15:29;5.45;;;3.80;;
24305;SDS011;12423;48.768;8.850;2023-06-14T01:17:31;9.90;;;4.70;;
24305;SDS011;12423;48.768;8.850;2023-06-14T01:19:32;5.32;;;4.18;;
24305;SDS011;12423;48.768;8.850;2023-06-14T01:21:34;10.18;;;4.47;;
24305;SDS011;12423;48.768;8.850;2023-06-14T01:23:42;6.28;;;3.90;;
24305;SDS011;12423;48.768;8.850;2023-06-14T01:25:43;6.47;;;4.00;;
24305;SDS011;12423;48.768;8.850;2023-06-14T01:27:47;5.50;;;4.00;;
24305;SDS011;12423;48.768;8.850;2023-06-14T01:29:53;9.05;;;4.40;;
24305;SDS011;12423;48.768;8.850;2023-06-14T01:31:57;6.32;;;4.28;;
24305;SDS011;12423;48.768;8.850;2023-06-14T01:33:58;6.57;;;4.00;;
24305;SDS011;12423;48.768;8.850;2023-06-14T01:35:59;5.93;;;3.58;;
24305;SDS011;12423;48.768;8.850;2023-06-14T01:38:04;5.88;;;3.78;;
24305;SDS011;12423;48.768;8.850;2023-06-14T01:40:07;7.50;;;4.88;;
24305;SDS011;12423;48.768;8.850;2023-06-14T01:42:09;7.00;;;4.40;;
24305;SDS011;12423;48.768;8.850;2023-06-14T01:44:12;5.70;;;3.70;;
24305;SDS011;12423;48.768;8.850;2023-06-14T01:46:16;7.55;;;3.97;;
24305;SDS011;12423;48.768;8.850;2023-06-14T01:48:17;9.00;;;4.25;;
24305;SDS011;12423;48.768;8.850;2023-06-14T01:50:20;10.77;;;4.50;;
24305;SDS011;12423;48.768;8.850;2023-06-14T01:52:21;10.50;;;4.32;;
24305;SDS011;12423;48.768;8.850;2023-06-14T01:54:23;7.72;;;3.75;;
24305;SDS011;12423;48.768;8.850;2023-06-14T01:56:26;5.00;;;3.80;;
24305;SDS011;12423;48.768;8.850;2023-06-14T01:58:27;5.50;;;3.95;;
24305;SDS011;12423;48.768;8.850;2023-06-14T02:00:29;7.05;;;4.32;;
24305;SDS011;12423;48.768;8.850;2023-06-14T02:02:30;6.43;;;3.92;;
24305;SDS011;12423;48.768;8.850;2023-06-14T02:04:31;7.07;;;4.07;;
24305;SDS011;12423;48.768;8.850;2023-06-14T02:06:32;7.68;;;4.05;;
24305;SDS011;12423;48.768;8.850;2023-06-14T02:08:34;6.97;;;4.00;;
24305;SDS011;12423;48.768;8.850;2023-06-14T02:10:36;9.27;;;4.28;;
24305;SDS011;12423;48.768;8.850;2023-06-14T02:12:37;7.80;;;4.03;;
24305;SDS011;12423;48.768;8.850;2023-06-14T02:14:38;5.90;;;4.38;;
24305;SDS011;12423;48.768;8.850;2023-06-14T02:16:39;5.70;;;3.92;;
24305;SDS011;12423;48.768;8.850;2023-06-14T02:18:40;9.85;;;3.95;;
24305;SDS011;12423;48.768;8.850;2023-06-14T02:20:41;6.13;;;4.32;;
24305;SDS011;12423;48.768;8.850;2023-06-14T02:22:42;6.20;;;3.97;;
24305;SDS011;12423;48.768;8.850;2023-06-14T02:24:43;5.65;;;4.20;;
24305;SDS011;12423;48.768;8.850;2023-06-14T02:26:44;6.63;;;4.53;;
24305;SDS011;12423;48.768;8.850;2023-06-14T02:28:49;6.45;;;4.50;;
24305;SDS011;12423;48.768;8.850;2023-06-14T02:30:50;6.63;;;4.22;;
24305;SDS011;12423;48.768;8.850;2023-06-14T02:32:51;7.95;;;3.88;;
24305;SDS011;12423;48.768;8.850;2023-06-14T02:34:53;7.60;;;3.83;;
24305;SDS011;12423;48.768;8.850;2023-06-14T02:36:55;7.40;;;3.75;;
24305;SDS011;12423;48.768;8.850;2023-06-14T02:38:56;6.68;;;4.22;;
24305;SDS011;12423;48.768;8.850;2023-06-14T02:41:00;9.20;;;4.68;;
24305;SDS011;12423;48.768;8.850;2023-06-14T02:43:02;7.03;;;3.97;;
24305;SDS011;12423;48.768;8.850;2023-06-14T02:45:03;6.85;;;3.95;;
24305;SDS011;12423;48.768;8.850;2023-06-14T02:47:04;7.18;;;4.07;;
24305;SDS011;12423;48.768;8.850;2023-06-14T02:49:05;5.53;;;3.75;;
24305;SDS011;12423;48.768;8.850;2023-06-14T02:51:06;5.80;;;3.65;;
24305;SDS011;12423;48.768;8.850;2023-06-14T02:53:09;7.85;;;4.50;;
24305;SDS011;12423;48.768;8.850;2023-06-14T02:55:11;5.43;;;4.10;;
24305;SDS011;12423;48.768;8.850;2023-06-14T02:57:12;8.15;;;3.80;;
24305;SDS011;12423;48.768;8.850;2023-06-14T02:59:15;7.15;;;4.10;;
24305;SDS011;12423;48.768;8.850;2023-06-14T03:01:17;6.47;;;4.40;;
24305;SDS011;12423;48.768;8.850;2023-06-14T03:03:21;6.97;;;4.45;;
24305;SDS011;12423;48.768;8.850;2023-06-14T03:05:28;7.47;;;3.97;;
24305;SDS011;12423;48.768;8.850;2023-06-14T03:07:29;7.55;;;4.20;;
24305;SDS011;12423;48.768;8.850;2023-06-14T03:09:32;7.90;;;4.18;;
24305;SDS011;12423;48.768;8.850;2023-06-14T03:11:33;8.05;;;4.43;;
24305;SDS011;12423;48.768;8.850;2023-06-14T03:13:34;6.38;;;4.00;;
24305;SDS011;12423;48.768;8.850;2023-06-14T03:15:37;7.13;;;4.20;;
24305;SDS011;12423;48.768;8.850;2023-06-14T03:17:39;6.47;;;3.92;;
24305;SDS011;12423;48.768;8.850;2023-06-14T03:19:45;8.50;;;4.20;;
24305;SDS011;12423;48.768;8.850;2023-06-14T03:21:48;7.88;;;3.97;;
24305;SDS011;12423;48.768;8.850;2023-06-14T03:23:49;9.82;;;4.38;;
24305;SDS011;12423;48.768;8.850;2023-06-14T03:25:51;6.50;;;4.63;;
24305;SDS011;12423;48.768;8.850;2023-06-14T03:27:52;5.93;;;4.45;;
24305;SDS011;12423;48.768;8.850;2023-06-14T03:29:54;6.55;;;3.85;;
24305;SDS011;12423;48.768;8.850;2023-06-14T03:31:58;6.15;;;4.05;;
24305;SDS011;12423;48.768;8.850;2023-06-14T03:34:08;5.90;;;3.85;;
24305;SDS011;12423;48.768;8.850;2023-06-14T03:36:09;5.55;;;3.72;;
24305;SDS011;12423;48.768;8.850;2023-06-14T03:38:10;6.97;;;4.22;;
24305;SDS011;12423;48.768;8.850;2023-06-14T03:40:15;7.10;;;4.22;;
24305;SDS011;12423;48.768;8.850;2023-06-14T03:42:20;5.97;;;4.05;;
24305;SDS011;12423;48.768;8.850;2023-06-14T03:44:22;5.70;;;4.03;;
24305;SDS011;12423;48.768;8.850;2023-06-14T03:46:24;6.32;;;4.00;;
24305;SDS011;12423;48.768;8.850;2023-06-14T03:48:25;5.97;;;4.10;;
24305;SDS011;12423;48.768;8.850;2023-06-14T03:50:26;7.30;;;4.40;;
24305;SDS011;12423;48.768;8.850;2023-06-14T03:52:27;6.07;;;3.97;;
24305;SDS011;12423;48.768;8.850;2023-06-14T03:54:29;6.65;;;4.30;;
24305;SDS011;12423;48.768;8.850;2023-06-14T03:56:33;7.03;;;4.85;;
24305;SDS011;12423;48.768;8.850;2023-06-14T03:58:34;8.38;;;4.43;;
24305;SDS011;12423;48.768;8.850;2023-06-14T04:00:35;9.45;;;5.18;;
24305;SDS011;12423;48.768;8.850;2023-06-14T04:02:36;8.35;;;4.13;;
24305;SDS011;12423;48.768;8.850;2023-06-14T04:04:37;8.85;;;4.57;;
24305;SDS011;12423;48.768;8.850;2023-06-14T04:06:40;9.52;;;5.03;;
24305;SDS011;12423;48.768;8.850;2023-06-14T04:08:45;8.20;;;5.15;;
24305;SDS011;12423;48.768;8.850;2023-06-14T04:10:46;9.38;;;4.40;;
24305;SDS011;12423;48.768;8.850;2023-06-14T04:12:49;8.57;;;4.40;;
24305;SDS011;12423;48.768;8.850;2023-06-14T04:14:51;8.43;;;4.80;;
24305;SDS011;12423;48.768;8.850;2023-06-14T04:16:53;8.73;;;4.53;;
24305;SDS011;12423;48.768;8.850;2023-06-14T04:18:55;8.90;;;4.53;;
24305;SDS011;12423;48.768;8.850;2023-06-14T04:20:58;11.57;;;4.75;;
24305;SDS011;12423;48.768;8.850;2023-06-14T04:23:10;9.55;;;5.03;;
24305;SDS011;12423;48.768;8.850;2023-06-14T04:25:12;7.82;;;4.32;;
24305;SDS011;12423;48.768;8.850;2023-06-14T04:27:14;9.43;;;4.47;;
24305;SDS011;12423;48.768;8.850;2023-06-14T04:29:22;5.72;;;4.50;;
24305;SDS011;12423;48.768;8.850;2023-06-14T04:31:32;7.22;;;4.38;;
24305;SDS011;12423;48.768;8.850;2023-06-14T04:33:40;7.97;;;4.30;;
24305;SDS011;12423;48.768;8.850;2023-06-14T04:35:47;6.68;;;4.85;;
24305;SDS011;12423;48.768;8.850;2023-06-14T04:37:49;10.45;;;4.53;;
24305;SDS011;12423;48.768;8.850;2023-06-14T04:39:51;6.78;;;4.65;;
24305;SDS011;12423;48.768;8.850;2023-06-14T04:41:53;8.02;;;4.53;;
24305;SDS011;12423;48.768;8.850;2023-06-14T04:43:58;9.18;;;4.22;;
24305;SDS011;12423;48.768;8.850;2023-06-14T04:46:02;7.57;;;4.80;;
24305;SDS011;12423;48.768;8.850;2023-06-14T04:48:06;7.15;;;4.22;;
24305;SDS011;12423;48.768;8.850;2023-06-14T04:50:07;8.30;;;5.00;;
24305;SDS011;12423;48.768;8.850;2023-06-14T04:52:09;7.20;;;4.38;;
24305;SDS011;12423;48.768;8.850;2023-06-14T04:54:16;7.13;;;4.90;;
24305;SDS011;12423;48.768;8.850;2023-06-14T04:56:20;8.38;;;5.00;;
24305;SDS011;12423;48.768;8.850;2023-06-14T04:58:23;7.57;;;4.30;;
24305;SDS011;12423;48.768;8.850;2023-06-14T05:00:24;9.02;;;4.45;;
24305;SDS011;12423;48.768;8.850;2023-06-14T05:02:25;6.97;;;5.30;;
24305;SDS011;12423;48.768;8.850;2023-06-14T05:04:28;6.93;;;4.72;;
24305;SDS011;12423;48.768;8.850;2023-06-14T05:06:30;11.70;;;4.53;;
24305;SDS011;12423;48.768;8.850;2023-06-14T05:08:32;7.75;;;5.10;;
24305;SDS011;12423;48.768;8.850;2023-06-14T05:10:33;9.57;;;5.60;;
24305;SDS011;12423;48.768;8.850;2023-06-14T05:12:36;7.93;;;5.53;;
24305;SDS011;12423;48.768;8.850;2023-06-14T05:14:38;14.30;;;4.68;;
24305;SDS011;12423;48.768;8.850;2023-06-14T05:16:40;6.75;;;4.80;;
24305;SDS011;12423;48.768;8.850;2023-06-14T05:18:41;12.40;;;4.75;;
24305;SDS011;12423;48.768;8.850;2023-06-14T05:20:42;9.50;;;4.80;;
24305;SDS011;12423;48.768;8.850;2023-06-14T05:22:43;8.32;;;4.75;;
24305;SDS011;12423;48.768;8.850;2023-06-14T05:24:45;10.23;;;5.45;;
24305;SDS011;12423;48.768;8.850;2023-06-14T05:26:48;7.78;;;5.18;;
24305;SDS011;12423;48.768;8.850;2023-06-14T05:28:49;6.53;;;5.03;;
24305;SDS011;12423;48.768;8.850;2023-06-14T05:30:51;8.95;;;5.03;;
24305;SDS011;12423;48.768;8.850;2023-06-14T05:32:52;8.18;;;4.70;;
24305;SDS011;12423;48.768;8.850;2023-06-14T05:34:53;10.98;;;5.50;;
24305;SDS011;12423;48.768;8.850;2023-06-14T05:36:54;8.10;;;4.88;;
24305;SDS011;12423;48.768;8.850;2023-06-14T05:38:56;7.47;;;4.88;;
24305;SDS011;12423;48.768;8.850;2023-06-14T05:40:59;8.18;;;5.10;;
24305;SDS011;12423;48.768;8.850;2023-06-14T05:43:01;8.75;;;4.78;;
24305;SDS011;12423;48.768;8.850;2023-06-14T05:45:02;9.82;;;4.90;;
24305;SDS011;12423;48.768;8.850;2023-06-14T05:47:03;8.35;;;4.57;;
24305;SDS011;12423;48.768;8.850;2023-06-14T05:49:04;6.25;;;4.45;;
24305;SDS011;12423;48.768;8.850;2023-06-14T05:51:06;10.98;;;4.35;;
24305;SDS011;12423;48.768;8.850;2023-06-14T05:53:09;11.65;;;4.35;;
24305;SDS011;12423;48.768;8.850;2023-06-14T05:55:10;9.00;;;5.07;;
24305;SDS011;12423;48.768;8.850;2023-06-14T05:57:12;12.13;;;4.30;;
24305;SDS011;12423;48.768;8.850;2023-06-14T05:59:13;6.75;;;4.82;;
24305;SDS011;12423;48.768;8.850;2023-06-14T06:01:14;8.25;;;4.57;;
24305;SDS011;12423;48.768;8.850;2023-06-14T06:03:16;7.30;;;4.60;;
24305;SDS011;12423;48.768;8.850;2023-06-14T06:05:17;5.90;;;4.40;;
24305;SDS011;12423;48.768;8.850;2023-06-14T06:07:18;6.78;;;4.25;;
24305;SDS011;12423;48.768;8.850;2023-06-14T06:09:19;11.18;;;4.57;;
24305;SDS011;12423;48.768;8.850;2023-06-14T06:11:20;8.15;;;4.70;;
24305;SDS011;12423;48.768;8.850;2023-06-14T06:13:21;10.30;;;4.38;;
24305;SDS011;12423;48.768;8.850;2023-06-14T06:15:22;7.00;;;3.95;;
24305;SDS011;12423;48.768;8.850;2023-06-14T06:17:24;8.43;;;3.67;;
24305;SDS011;12423;48.768;8.850;2023-06-14T06:19:26;9.25;;;4.28;;
24305;SDS011;12423;48.768;8.850;2023-06-14T06:21:27;6.80;;;4.20;;
24305;SDS011;12423;48.768;8.850;2023-06-14T06:23:28;8.43;;;4.13;;
24305;SDS011;12423;48.768;8.850;2023-06-14T06:25:29;7.88;;;4.13;;
24305;SDS011;12423;48.768;8.850;2023-06-14T06:27:32;8.23;;;4.20;;
24305;SDS011;12423;48.768;8.850;2023-06-14T06:29:33;8.15;;;4.03;;
24305;SDS011;12423;48.768;8.850;2023-06-14T06:31:35;7.05;;;4.13;;
24305;SDS011;12423;48.768;8.850;2023-06-14T06:33:36;6.97;;;4.20;;
24305;SDS011;12423;48.768;8.850;2023-06-14T06:35:37;6.25;;;3.83;;
24305;SDS011;12423;48.768;8.850;2023-06-14T06:37:39;14.80;;;4.38;;
24305;SDS011;12423;48.768;8.850;2023-06-14T06:39:40;6.47;;;3.60;;
24305;SDS011;12423;48.768;8.850;2023-06-14T06:41:41;10.05;;;4.68;;
24305;SDS011;12423;48.768;8.850;2023-06-14T06:43:42;7.60;;;4.03;;
24305;SDS011;12423;48.768;8.850;2023-06-14T06:45:44;8.50;;;3.90;;
24305;SDS011;12423;48.768;8.850;2023-06-14T06:47:45;7.40;;;3.75;;
24305;SDS011;12423;48.768;8.850;2023-06-14T06:49:46;8.75;;;3.92;;
24305;SDS011;12423;48.768;8.850;2023-06-14T06:52:00;7.60;;;3.85;;
24305;SDS011;12423;48.768;8.850;2023-06-14T06:54:02;9.80;;;5.60;;
24305;SDS011;12423;48.768;8.850;2023-06-14T06:56:03;5.25;;;4.22;;
24305;SDS011;12423;48.768;8.850;2023-06-14T06:58:04;8.93;;;4.00;;
24305;SDS011;12423;48.768;8.850;2023-06-14T07:00:06;5.40;;;3.60;;
24305;SDS011;12423;48.768;8.850;2023-06-14T07:02:10;9.43;;;3.70;;
24305;SDS011;12423;48.768;8.850;2023-06-14T07:04:12;9.25;;;4.10;;
24305;SDS011;12423;48.768;8.850;2023-06-14T07:06:13;7.38;;;4.10;;
24305;SDS011;12423;48.768;8.850;2023-06-14T07:08:14;11.90;;;3.72;;
24305;SDS011;12423;48.768;8.850;2023-06-14T07:10:15;7.60;;;3.70;;
24305;SDS011;12423;48.768;8.850;2023-06-14T07:12:17;7.25;;;4.10;;
24305;SDS011;12423;48.768;8.850;2023-06-14T07:14:18;7.07;;;4.03;;
24305;SDS011;12423;48.768;8.850;2023-06-14T07:16:19;7.97;;;3.90;;
24305;SDS011;12423;48.768;8.850;2023-06-14T07:18:20;5.88;;;3.83;;
24305;SDS011;12423;48.768;8.850;2023-06-14T07:20:22;6.20;;;3.97;;
24305;SDS011;12423;48.768;8.850;2023-06-14T07:22:25;6.25;;;4.20;;
24305;SDS011;12423;48.768;8.850;2023-06-14T07:24:26;8.70;;;4.20;;
24305;SDS011;12423;48.768;8.850;2023-06-14T07:26:28;6.43;;;4.00;;
24305;SDS011;12423;48.768;8.850;2023-06-14T07:28:29;8.40;;;4.13;;
24305;SDS011;12423;48.768;8.850;2023-06-14T07:30:31;10.65;;;4.00;;
24305;SDS011;12423;48.768;8.850;2023-06-14T07:32:32;8.70;;;3.90;;
24305;SDS011;12423;48.768;8.850;2023-06-14T07:34:33;8.05;;;4.32;;
24305;SDS011;12423;48.768;8.850;2023-06-14T07:36:34;8.35;;;4.05;;
24305;SDS011;12423;48.768;8.850;2023-06-14T07:38:35;7.90;;;4.32;;
24305;SDS011;12423;48.768;8.850;2023-06-14T07:40:37;6.70;;;4.05;;
24305;SDS011;12423;48.768;8.850;2023-06-14T07:42:38;4.93;;;3.65;;
24305;SDS011;12423;48.768;8.850;2023-06-14T07:44:39;9.55;;;4.07;;
24305;SDS011;12423;48.768;8.850;2023-06-14T07:46:40;10.10;;;3.90;;
24305;SDS011;12423;48.768;8.850;2023-06-14T07:48:41;6.93;;;4.40;;
24305;SDS011;12423;48.768;8.850;2023-06-14T07:50:42;7.22;;;4.13;;
24305;SDS011;12423;48.768;8.850;2023-06-14T07:52:43;9.85;;;4.25;;
24305;SDS011;12423;48.768;8.850;2023-06-14T07:54:45;9.68;;;3.60;;
24305;SDS011;12423;48.768;8.850;2023-06-14T07:56:46;7.75;;;3.65;;
24305;SDS011;12423;48.768;8.850;2023-06-14T07:58:47;10.48;;;4.22;;
24305;SDS011;12423;48.768;8.850;2023-06-14T08:00:48;7.18;;;3.90;;
24305;SDS011;12423;48.768;8.850;2023-06-14T08:02:50;8.93;;;3.72;;
24305;SDS011;12423;48.768;8.850;2023-06-14T08:04:52;8.10;;;3.80;;
24305;SDS011;12423;48.768;8.850;2023-06-14T08:06:53;5.35;;;3.47;;
24305;SDS011;12423;48.768;8.850;2023-06-14T08:08:54;8.18;;;4.18;;
24305;SDS011;12423;48.768;8.850;2023-06-14T08:10:55;10.00;;;4.20;;
24305;SDS011;12423;48.768;8.850;2023-06-14T08:12:56;7.30;;;4.28;;
24305;SDS011;12423;48.768;8.850;2023-06-14T08:14:57;7.32;;;3.63;;
24305;SDS011;12423;48.768;8.850;2023-06-14T08:17:00;10.88;;;3.95;;
24305;SDS011;12423;48.768;8.850;2023-06-14T08:19:01;8.13;;;3.92;;
24305;SDS011;12423;48.768;8.850;2023-06-14T08:21:02;8.18;;;3.72;;
24305;SDS011;12423;48.768;8.850;2023-06-14T08:23:03;5.50;;;3.70;;
24305;SDS011;12423;48.768;8.850;2023-06-14T08:25:04;5.82;;;3.70;;
24305;SDS011;12423;48.768;8.850;2023-06-14T08:27:06;6.25;;;3.88;;
24305;SDS011;12423;48.768;8.850;2023-06-14T08:29:07;8.38;;;3.50;;
24305;SDS011;12423;48.768;8.850;2023-06-14T08:31:08;7.10;;;3.60;;
24305;SDS011;12423;48.768;8.850;2023-06-14T08:33:09;8.57;;;4.30;;
24305;SDS011;12423;48.768;8.850;2023-06-14T08:35:10;5.85;;;4.20;;
24305;SDS011;12423;48.768;8.850;2023-06-14T08:37:13;11.02;;;3.90;;
24305;SDS011;12423;48.768;8.850;2023-06-14T08:39:14;8.88;;;3.92;;
24305;SDS011;12423;48.768;8.850;2023-06-14T08:41:20;7.00;;;3.55;;
24305;SDS011;12423;48.768;8.850;2023-06-14T08:43:23;9.93;;;4.15;;
24305;SDS011;12423;48.768;8.850;2023-06-14T08:45:24;8.43;;;4.07;;
24305;SDS011;12423;48.768;8.850;2023-06-14T08:47:26;8.02;;;3.50;;
24305;SDS011;12423;48.768;8.850;2023-06-14T08:49:27;6.93;;;3.70;;
24305;SDS011;12423;48.768;8.850;2023-06-14T08:51:28;7.50;;;4.47;;
24305;SDS011;12423;48.768;8.850;2023-06-14T08:53:34;6.55;;;3.97;;
24305;SDS011;12423;48.768;8.850;2023-06-14T08:55:42;12.63;;;4.88;;
24305;SDS011;12423;48.768;8.850;2023-06-14T08:57:44;8.30;;;4.75;;
24305;SDS011;12423;48.768;8.850;2023-06-14T08:59:47;7.75;;;4.32;;
24305;SDS011;12423;48.768;8.850;2023-06-14T09:01:54;7.50;;;4.50;;
24305;SDS011;12423;48.768;8.850;2023-06-14T09:03:55;8.77;;;4.15;;
24305;SDS011;12423;48.768;8.850;2023-06-14T09:05:57;9.20;;;4.30;;
24305;SDS011;12423;48.768;8.850;2023-06-14T09:08:01;8.40;;;3.97;;
24305;SDS011;12423;48.768;8.850;2023-06-14T09:10:09;9.98;;;4.55;;
24305;SDS011;12423;48.768;8.850;2023-06-14T09:12:11;6.15;;;4.00;;
24305;SDS011;12423;48.768;8.850;2023-06-14T09:14:13;8.48;;;3.92;;
24305;SDS011;12423;48.768;8.850;2023-06-14T09:16:14;11.63;;;4.00;;
24305;SDS011;12423;48.768;8.850;2023-06-14T09:18:15;6.78;;;4.10;;
24305;SDS011;12423;48.768;8.850;2023-06-14T09:20:17;6.30;;;3.97;;
24305;SDS011;12423;48.768;8.850;2023-06-14T09:22:19;8.55;;;4.00;;
24305;SDS011;12423;48.768;8.850;2023-06-14T09:24:20;8.43;;;4.10;;
24305;SDS011;12423;48.768;8.850;2023-06-14T09:26:22;12.70;;;4.40;;
24305;SDS011;12423;48.768;8.850;2023-06-14T09:28:28;7.47;;;4.15;;
24305;SDS011;12423;48.768;8.850;2023-06-14T09:30:29;5.95;;;3.88;;
24305;SDS011;12423;48.768;8.850;2023-06-14T09:32:30;8.55;;;3.90;;
24305;SDS011;12423;48.768;8.850;2023-06-14T09:34:31;10.88;;;4.28;;
24305;SDS011;12423;48.768;8.850;2023-06-14T09:36:33;8.90;;;3.70;;
24305;SDS011;12423;48.768;8.850;2023-06-14T09:38:34;8.80;;;3.80;;
24305;SDS011;12423;48.768;8.850;2023-06-14T09:40:36;8.48;;;4.03;;
24305;SDS011;12423;48.768;8.850;2023-06-14T09:42:37;7.20;;;4.18;;
24305;SDS011;12423;48.768;8.850;2023-06-14T09:44:38;8.45;;;4.00;;
24305;SDS011;12423;48.768;8.850;2023-06-14T09:46:39;10.43;;;4.47;;
24305;SDS011;12423;48.768;8.850;2023-06-14T09:48:41;8.18;;;4.18;;
24305;SDS011;12423;48.768;8.850;2023-06-14T09:50:46;7.57;;;4.22;;
24305;SDS011;12423;48.768;8.850;2023-06-14T09:52:51;7.18;;;3.40;;
24305;SDS011;12423;48.768;8.850;2023-06-14T09:54:53;5.60;;;4.10;;
24305;SDS011;12423;48.768;8.850;2023-06-14T09:56:56;12.82;;;4.25;;
24305;SDS011;12423;48.768;8.850;2023-06-14T09:58:57;8.05;;;3.97;;
24305;SDS011;12423;48.768;8.850;2023-06-14T10:00:59;7.18;;;3.30;;
24305;SDS011;12423;48.768;8.850;2023-06-14T10:03:12;7.90;;;3.55;;
24305;SDS011;12423;48.768;8.850;2023-06-14T10:05:15;7.07;;;3.60;;
24305;SDS011;12423;48.768;8.850;2023-06-14T10:07:19;4.68;;;2.88;;
24305;SDS011;12423;48.768;8.850;2023-06-14T10:09:21;7.97;;;3.30;;
24305;SDS011;12423;48.768;8.850;2023-06-14T10:11:23;5.50;;;3.28;;
24305;SDS011;12423;48.768;8.850;2023-06-14T10:13:26;8.45;;;3.50;;
24305;SDS011;12423;48.768;8.850;2023-06-14T10:15:32;6.97;;;3.80;;
24305;SDS011;12423;48.768;8.850;2023-06-14T10:17:44;6.32;;;3.60;;
24305;SDS011;12423;48.768;8.850;2023-06-14T10:19:55;6.97;;;3.42;;
24305;SDS011;12423;48.768;8.850;2023-06-14T10:22:11;9.38;;;3.50;;
24305;SDS011;12423;48.768;8.850;2023-06-14T10:24:15;8.25;;;3.28;;
24305;SDS011;12423;48.768;8.850;2023-06-14T10:26:19;11.13;;;3.40;;
24305;SDS011;12423;48.768;8.850;2023-06-14T10:28:24;6.50;;;3.05;;
24305;SDS011;12423;48.768;8.850;2023-06-14T10:30:25;5.50;;;3.30;;
24305;SDS011;12423;48.768;8.850;2023-06-14T10:32:27;8.30;;;3.65;;
24305;SDS011;12423;48.768;8.850;2023-06-14T10:34:31;3.97;;;2.92;;
24305;SDS011;12423;48.768;8.850;2023-06-14T10:36:32;12.98;;;4.68;;
24305;SDS011;12423;48.768;8.850;2023-06-14T10:38:36;9.02;;;4.05;;
24305;SDS011;12423;48.768;8.850;2023-06-14T10:40:38;5.68;;;3.60;;
24305;SDS011;12423;48.768;8.850;2023-06-14T10:42:39;7.65;;;3.08;;
24305;SDS011;12423;48.768;8.850;2023-06-14T10:44:53;6.78;;;3.35;;
24305;SDS011;12423;48.768;8.850;2023-06-14T10:47:00;7.88;;;3.60;;
24305;SDS011;12423;48.768;8.850;2023-06-14T10:49:01;7.47;;;3.67;;
24305;SDS011;12423;48.768;8.850;2023-06-14T10:51:04;5.75;;;3.70;;
24305;SDS011;12423;48.768;8.850;2023-06-14T10:53:21;8.68;;;4.07;;
24305;SDS011;12423;48.768;8.850;2023-06-14T10:55:22;4.65;;;2.90;;
24305;SDS011;12423;48.768;8.850;2023-06-14T10:57:25;9.43;;;3.72;;
24305;SDS011;12423;48.768;8.850;2023-06-14T10:59:26;6.07;;;3.65;;
24305;SDS011;12423;48.768;8.850;2023-06-14T11:01:37;5.40;;;3.58;;
24305;SDS011;12423;48.768;8.850;2023-06-14T11:03:51;8.27;;;3.55;;
24305;SDS011;12423;48.768;8.850;2023-06-14T11:05:54;6.47;;;3.50;;
24305;SDS011;12423;48.768;8.850;2023-06-14T11:12:19;6.45;;;3.63;;
24305;SDS011;12423;48.768;8.850;2023-06-14T11:14:22;8.13;;;3.67;;
24305;SDS011;12423;48.768;8.850;2023-06-14T11:16:25;12.93;;;3.70;;
24305;SDS011;12423;48.768;8.850;2023-06-14T11:18:28;8.40;;;3.42;;
24305;SDS011;12423;48.768;8.850;2023-06-14T11:20:33;5.70;;;3.28;;
24305;SDS011;12423;48.768;8.850;2023-06-14T11:22:39;6.85;;;3.05;;
24305;SDS011;12423;48.768;8.850;2023-06-14T11:24:42;4.88;;;3.35;;
24305;SDS011;12423;48.768;8.850;2023-06-14T11:26:43;6.82;;;3.30;;
24305;SDS011;12423;48.768;8.850;2023-06-14T11:28:44;7.72;;;3.38;;
24305;SDS011;12423;48.768;8.850;2023-06-14T11:30:45;6.22;;;3.05;;
24305;SDS011;12423;48.768;8.850;2023-06-14T11:32:47;6.13;;;3.03;;
24305;SDS011;12423;48.768;8.850;2023-06-14T11:34:49;6.80;;;3.03;;
24305;SDS011;12423;48.768;8.850;2023-06-14T11:36:51;5.20;;;2.95;;
24305;SDS011;12423;48.768;8.850;2023-06-14T11:38:57;7.60;;;3.20;;
24305;SDS011;12423;48.768;8.850;2023-06-14T11:41:00;6.75;;;3.22;;
24305;SDS011;12423;48.768;8.850;2023-06-14T11:43:01;6.07;;;3.00;;
24305;SDS011;12423;48.768;8.850;2023-06-14T11:45:03;7.07;;;3.15;;
24305;SDS011;12423;48.768;8.850;2023-06-14T11:47:07;6.85;;;3.20;;
24305;SDS011;12423;48.768;8.850;2023-06-14T11:49:08;6.40;;;3.60;;
24305;SDS011;12423;48.768;8.850;2023-06-14T11:51:10;5.47;;;2.95;;
24305;SDS011;12423;48.768;8.850;2023-06-14T11:53:11;4.20;;;2.90;;
24305;SDS011;12423;48.768;8.850;2023-06-14T11:55:12;5.82;;;3.20;;
24305;SDS011;12423;48.768;8.850;2023-06-14T11:57:13;3.83;;;2.83;;
24305;SDS011;12423;48.768;8.850;2023-06-14T11:59:15;9.57;;;3.28;;
24305;SDS011;12423;48.768;8.850;2023-06-14T12:01:16;7.28;;;2.85;;
24305;SDS011;12423;48.768;8.850;2023-06-14T12:03:22;6.95;;;3.13;;
24305;SDS011;12423;48.768;8.850;2023-06-14T12:05:24;5.07;;;2.78;;
24305;SDS011;12423;48.768;8.850;2023-06-14T12:07:27;7.07;;;2.83;;
24305;SDS011;12423;48.768;8.850;2023-06-14T12:09:32;7.88;;;2.90;;
24305;SDS011;12423;48.768;8.850;2023-06-14T12:11:36;6.47;;;3.00;;
24305;SDS011;12423;48.768;8.850;2023-06-14T12:13:37;7.85;;;3.20;;
24305;SDS011;12423;48.768;8.850;2023-06-14T12:15:40;7.70;;;2.95;;
24305;SDS011;12423;48.768;8.850;2023-06-14T12:17:41;5.88;;;3.20;;
24305;SDS011;12423;48.768;8.850;2023-06-14T12:19:44;8.65;;;3.22;;
24305;SDS011;12423;48.768;8.850;2023-06-14T12:21:46;9.88;;;3.53;;
24305;SDS011;12423;48.768;8.850;2023-06-14T12:23:52;4.22;;;2.80;;